createdAt,value
2023-05-01T00:01:17.451Z,18.99
2023-05-01T00:03:45.175Z,19.04
2023-05-01T00:06:13.093Z,19.00
2023-05-01T00:08:41.410Z,18.97
2023-05-01T00:11:09.900Z,18.91
2023-05-01T00:13:39.404Z,18.88
2023-05-01T00:16:10.753Z,18.87
2023-05-01T00:18:38.789Z,18.82
2023-05-01T00:21:06.742Z,18.80
2023-05-01T00:23:35.096Z,18.77
2023-05-01T00:26:02.957Z,18.76
2023-05-01T00:28:30.733Z,18.75
2023-05-01T00:31:00.510Z,18.74
2023-05-01T00:33:28.281Z,18.71
2023-05-01T00:35:56.051Z,18.70
2023-05-01T00:38:25.703Z,18.68
2023-05-01T00:40:53.267Z,18.73
2023-05-01T00:43:21.276Z,18.70
2023-05-01T00:45:49.778Z,18.67
2023-05-01T00:48:19.123Z,18.66
2023-05-01T00:50:47.363Z,18.62
2023-05-01T00:53:15.567Z,18.59
2023-05-01T00:55:43.811Z,18.56
2023-05-01T00:58:12.199Z,18.54
2023-05-01T01:00:40.666Z,18.53
2023-05-01T01:03:08.941Z,18.51
2023-05-01T01:05:43.625Z,18.52
2023-05-01T01:08:20.394Z,18.51
2023-05-01T01:10:55.879Z,18.47
2023-05-01T01:13:30.769Z,18.49
2023-05-01T01:19:08.144Z,18.48
2023-05-01T01:21:42.232Z,18.46
2023-05-01T01:24:37.206Z,18.44
2023-05-01T01:27:51.587Z,18.43
2023-05-01T01:30:35.969Z,18.44
2023-05-01T01:33:44.771Z,18.38
2023-05-01T01:36:18.708Z,18.41
2023-05-01T01:38:48.771Z,18.37
2023-05-01T01:41:23.854Z,18.37
2023-05-01T01:44:03.061Z,18.35
2023-05-01T01:46:38.216Z,18.34
2023-05-01T01:49:13.493Z,18.31
2023-05-01T01:51:43.018Z,18.28
2023-05-01T01:54:14.598Z,18.27
2023-05-01T01:56:43.394Z,18.24
2023-05-01T01:59:12.378Z,18.24
2023-05-01T02:01:43.292Z,18.21
2023-05-01T02:04:14.740Z,18.21
2023-05-01T02:06:44.870Z,18.19
2023-05-01T02:09:13.847Z,18.17
2023-05-01T02:11:42.527Z,18.14
2023-05-01T02:14:12.838Z,18.15
2023-05-01T02:16:42.635Z,18.09
2023-05-01T02:19:12.835Z,18.09
2023-05-01T02:21:41.757Z,18.06
2023-05-01T02:24:10.441Z,18.07
2023-05-01T02:26:44.116Z,18.08
2023-05-01T02:29:12.052Z,18.05
2023-05-01T02:31:39.979Z,18.04
2023-05-01T02:34:08.355Z,18.03
2023-05-01T02:36:37.493Z,18.02
2023-05-01T02:39:05.789Z,17.98
2023-05-01T02:41:36.630Z,17.99
2023-05-01T02:44:07.004Z,17.97
2023-05-01T02:46:38.968Z,17.97
2023-05-01T02:49:08.137Z,17.94
2023-05-01T02:51:39.134Z,17.92
2023-05-01T02:54:08.066Z,17.90
2023-05-01T02:56:36.685Z,17.88
2023-05-01T02:59:04.950Z,17.85
2023-05-01T03:01:32.766Z,17.85
2023-05-01T03:04:00.671Z,17.82
2023-05-01T03:06:29.605Z,17.80
2023-05-01T03:08:58.740Z,17.79
2023-05-01T03:11:26.921Z,17.77
2023-05-01T03:13:55.325Z,17.75
2023-05-01T03:16:23.314Z,17.72
2023-05-01T03:18:51.154Z,17.70
2023-05-01T03:21:19.243Z,17.68
2023-05-01T03:23:47.036Z,17.66
2023-05-01T03:26:16.206Z,17.64
2023-05-01T03:28:44.595Z,17.60
2023-05-01T03:31:12.419Z,17.58
2023-05-01T03:33:40.442Z,17.56
2023-05-01T03:36:09.779Z,17.56
2023-05-01T03:38:37.646Z,17.54
2023-05-01T03:41:06.008Z,17.52
2023-05-01T03:43:35.695Z,17.52
2023-05-01T03:46:03.759Z,17.50
2023-05-01T03:48:31.609Z,17.49
2023-05-01T03:51:00.036Z,17.46
2023-05-01T03:53:27.851Z,17.45
2023-05-01T03:55:55.645Z,17.44
2023-05-01T03:58:23.929Z,17.42
2023-05-01T04:00:53.178Z,17.42
2023-05-01T04:03:20.983Z,17.41
2023-05-01T04:05:49.504Z,17.41
2023-05-01T04:08:17.311Z,17.39
2023-05-01T04:10:45.086Z,17.39
2023-05-01T04:13:13.595Z,17.37
2023-05-01T04:15:45.556Z,17.38
2023-05-01T04:18:15.380Z,17.35
2023-05-01T04:20:43.173Z,17.33
2023-05-01T04:23:10.973Z,17.33
2023-05-01T04:25:39.384Z,17.32
2023-05-01T04:28:07.547Z,17.30
2023-05-01T04:30:35.352Z,17.29
2023-05-01T04:33:04.253Z,17.28
2023-05-01T04:35:33.441Z,17.28
2023-05-01T04:38:01.229Z,17.26
2023-05-01T04:40:29.548Z,17.25
2023-05-01T04:42:57.302Z,17.24
2023-05-01T04:45:25.072Z,17.23
2023-05-01T04:47:53.439Z,17.21
2023-05-01T04:50:21.438Z,17.22
2023-05-01T04:52:50.746Z,17.22
2023-05-01T04:55:19.103Z,17.20
2023-05-01T04:57:46.892Z,17.19
2023-05-01T05:00:15.224Z,17.19
2023-05-01T05:02:43.761Z,17.20
2023-05-01T05:05:11.709Z,17.20
2023-05-01T05:07:39.498Z,17.20
2023-05-01T05:10:10.041Z,17.22
2023-05-01T05:12:37.951Z,17.20
2023-05-01T05:15:06.604Z,17.20
2023-05-01T05:17:35.001Z,17.20
2023-05-01T05:20:03.583Z,17.21
2023-05-01T05:22:31.342Z,17.20
2023-05-01T05:25:04.560Z,17.22
2023-05-01T05:27:38.045Z,17.22
2023-05-01T05:30:08.871Z,17.24
2023-05-01T05:32:37.474Z,17.24
2023-05-01T05:35:06.500Z,17.23
2023-05-01T05:37:35.103Z,17.24
2023-05-01T05:40:03.081Z,17.25
2023-05-01T05:42:31.233Z,17.25
2023-05-01T05:45:00.667Z,17.27
2023-05-01T05:47:28.707Z,17.27
2023-05-01T05:49:56.794Z,17.28
2023-05-01T05:52:25.450Z,17.29
2023-05-01T05:54:53.228Z,17.30
2023-05-01T05:57:20.966Z,17.29
2023-05-01T05:59:49.492Z,17.31
2023-05-01T06:02:18.916Z,17.33
2023-05-01T06:04:47.032Z,17.35
2023-05-01T06:07:15.470Z,17.36
2023-05-01T06:09:43.515Z,17.37
2023-05-01T06:12:11.294Z,17.39
2023-05-01T06:14:39.809Z,17.37
2023-05-01T06:17:08.077Z,17.38
2023-05-01T06:19:38.149Z,17.41
2023-05-01T06:22:07.440Z,17.42
2023-05-01T06:24:36.618Z,17.43
2023-05-01T06:27:04.418Z,17.43
2023-05-01T06:29:32.913Z,17.44
2023-05-01T06:32:00.744Z,17.44
2023-05-01T06:34:28.575Z,17.47
2023-05-01T06:36:58.364Z,17.50
2023-05-01T06:39:26.364Z,17.51
2023-05-01T06:41:54.147Z,17.53
2023-05-01T06:44:22.571Z,17.53
2023-05-01T06:46:50.616Z,17.57
2023-05-01T06:49:18.460Z,17.60
2023-05-01T06:51:46.507Z,17.62
2023-05-01T06:54:15.781Z,17.65
2023-05-01T06:56:43.569Z,17.70
2023-05-01T06:59:11.937Z,17.74
2023-05-01T07:01:39.832Z,17.77
2023-05-01T07:04:07.646Z,17.84
2023-05-01T07:06:36.139Z,17.90
2023-05-01T07:09:04.092Z,17.97
2023-05-01T07:11:33.743Z,18.02
2023-05-01T07:14:01.790Z,18.12
2023-05-01T07:16:29.603Z,18.17
2023-05-01T07:18:57.392Z,18.19
2023-05-01T07:21:25.797Z,18.23
2023-05-01T07:23:53.561Z,18.26
2023-05-01T07:26:21.356Z,18.28
2023-05-01T07:28:51.044Z,18.30
2023-05-01T07:31:18.876Z,18.34
2023-05-01T07:33:47.149Z,18.36
2023-05-01T07:36:15.710Z,18.37
2023-05-01T07:38:43.468Z,18.42
2023-05-01T07:41:11.248Z,18.46
2023-05-01T07:43:39.679Z,18.51
2023-05-01T07:46:08.891Z,18.56
2023-05-01T07:48:38.952Z,18.59
2023-05-01T07:51:07.057Z,18.62
2023-05-01T07:53:34.896Z,18.65
2023-05-01T07:56:09.920Z,18.71
2023-05-01T07:58:38.028Z,18.73
2023-05-01T08:01:09.735Z,18.74
2023-05-01T08:03:37.827Z,18.77
2023-05-01T08:06:06.183Z,18.75
2023-05-01T08:08:34.667Z,18.81
2023-05-01T08:11:02.431Z,18.86
2023-05-01T08:13:30.180Z,18.87
2023-05-01T08:16:02.921Z,18.87
2023-05-01T08:18:32.405Z,18.85
2023-05-01T08:21:00.223Z,18.93
2023-05-01T08:23:28.608Z,18.94
2023-05-01T08:25:56.366Z,18.98
2023-05-01T08:28:24.235Z,18.99
2023-05-01T08:30:52.443Z,18.99
2023-05-01T08:33:20.261Z,18.96
2023-05-01T08:35:49.891Z,19.01
2023-05-01T08:38:17.959Z,19.04
2023-05-01T08:40:53.539Z,19.06
2023-05-01T08:43:22.187Z,19.09
2023-05-01T08:45:52.215Z,19.11
2023-05-01T08:48:20.813Z,19.11
2023-05-01T08:50:51.392Z,19.19
2023-05-01T08:53:21.240Z,19.18
2023-05-01T08:55:52.241Z,19.25
2023-05-01T08:58:20.692Z,19.33
2023-05-01T09:00:48.848Z,19.42
2023-05-01T09:03:19.227Z,19.47
2023-05-01T09:05:47.382Z,19.56
2023-05-01T09:08:16.635Z,19.64
2023-05-01T09:10:49.787Z,19.75
2023-05-01T09:13:17.716Z,19.76
2023-05-01T09:15:45.667Z,19.85
2023-05-01T09:18:14.458Z,19.91
2023-05-01T09:20:42.944Z,19.96
2023-05-01T09:23:10.982Z,19.99
2023-05-01T09:25:40.739Z,20.01
2023-05-01T09:28:08.644Z,20.03
2023-05-01T09:30:37.975Z,20.05
2023-05-01T09:33:07.312Z,20.01
2023-05-01T09:35:49.709Z,20.04
2023-05-01T09:38:20.295Z,20.04
2023-05-01T09:40:49.749Z,20.01
2023-05-01T09:43:27.970Z,20.01
2023-05-01T09:46:03.755Z,20.01
2023-05-01T09:48:35.079Z,19.94
2023-05-01T09:51:21.444Z,19.95
2023-05-01T09:53:50.202Z,19.93
2023-05-01T09:56:19.667Z,19.91
2023-05-01T09:58:47.907Z,19.90
2023-05-01T10:01:16.296Z,19.91
2023-05-01T10:03:45.972Z,19.89
2023-05-01T10:06:13.936Z,19.92
2023-05-01T10:08:49.575Z,19.95
2023-05-01T10:11:18.933Z,19.95
2023-05-01T10:13:46.747Z,19.99
2023-05-01T10:16:40.006Z,19.99
2023-05-01T10:19:07.943Z,20.05
2023-05-01T10:21:36.278Z,20.10
2023-05-01T10:24:06.367Z,20.15
2023-05-01T10:26:36.216Z,20.22
2023-05-01T10:29:05.191Z,20.25
2023-05-01T10:31:33.697Z,20.33
2023-05-01T10:34:02.563Z,20.46
2023-05-01T10:36:35.504Z,20.57
2023-05-01T10:39:03.905Z,20.63
2023-05-01T10:42:14.749Z,20.72
2023-05-01T10:44:47.789Z,20.81
2023-05-01T10:47:47.096Z,20.80
2023-05-01T10:50:16.341Z,20.85
2023-05-01T10:53:18.859Z,20.86
2023-05-01T10:55:48.411Z,20.90
2023-05-01T10:58:36.580Z,20.90
2023-05-01T11:01:34.271Z,20.95
2023-05-01T11:04:05.527Z,20.92
2023-05-01T11:06:33.725Z,20.91
2023-05-01T11:09:02.190Z,20.89
2023-05-01T11:11:52.005Z,20.89
2023-05-01T11:14:19.878Z,20.87
2023-05-01T11:16:49.493Z,20.90
2023-05-01T11:19:50.916Z,21.01
2023-05-01T11:22:19.571Z,21.05
2023-05-01T11:24:48.090Z,21.09
2023-05-01T11:27:18.308Z,21.13
2023-05-01T11:29:48.488Z,21.21
2023-05-01T11:32:20.836Z,21.24
2023-05-01T11:34:51.094Z,21.27
2023-05-01T11:37:19.039Z,21.24
2023-05-01T11:39:53.889Z,21.30
2023-05-01T11:42:23.458Z,21.30
2023-05-01T11:45:07.801Z,21.32
2023-05-01T11:47:37.242Z,21.31
2023-05-01T11:50:04.998Z,21.27
2023-05-01T11:52:43.346Z,21.25
2023-05-01T11:55:11.615Z,21.28
2023-05-01T11:57:50.070Z,21.25
2023-05-01T12:00:27.878Z,21.16
2023-05-01T12:03:06.917Z,21.08
2023-05-01T12:05:37.081Z,21.07
2023-05-01T12:08:11.877Z,21.08
2023-05-01T12:10:41.159Z,21.09
2023-05-01T12:13:10.744Z,21.05
2023-05-01T12:15:39.252Z,21.14
2023-05-01T12:18:08.950Z,21.18
2023-05-01T12:20:38.657Z,21.17
2023-05-01T12:23:08.430Z,21.22
2023-05-01T12:25:36.725Z,21.24
2023-05-01T12:28:09.726Z,21.24
2023-05-01T12:30:38.408Z,21.35
2023-05-01T12:33:15.881Z,21.45
2023-05-01T12:35:46.571Z,21.45
2023-05-01T12:38:16.826Z,21.49
2023-05-01T12:40:54.519Z,21.54
2023-05-01T12:43:23.768Z,21.53
2023-05-01T12:45:54.564Z,21.53
2023-05-01T12:48:24.083Z,21.55
2023-05-01T12:50:54.868Z,21.50
2023-05-01T12:53:24.318Z,21.55
2023-05-01T12:55:53.565Z,21.61
2023-05-01T12:58:21.786Z,21.59
2023-05-01T13:00:51.350Z,21.59
2023-05-01T13:03:23.623Z,21.60
2023-05-01T13:05:55.032Z,21.67
2023-05-01T13:08:31.020Z,21.66
2023-05-01T13:11:00.546Z,21.62
2023-05-01T13:13:28.941Z,21.61
2023-05-01T13:16:05.614Z,21.58
2023-05-01T13:18:34.741Z,21.53
2023-05-01T13:21:13.177Z,21.50
2023-05-01T13:23:41.500Z,21.46
2023-05-01T13:26:11.422Z,21.46
2023-05-01T13:28:46.704Z,21.39
2023-05-01T13:31:15.629Z,21.33
2023-05-01T13:33:44.053Z,21.34
2023-05-01T13:36:25.379Z,21.32
2023-05-01T13:38:56.985Z,21.27
2023-05-01T13:41:27.088Z,21.30
2023-05-01T13:43:56.757Z,21.37
2023-05-01T13:46:27.400Z,21.41
2023-05-01T13:48:56.283Z,21.48
2023-05-01T13:51:27.837Z,21.54
2023-05-01T13:53:57.368Z,21.63
2023-05-01T13:56:24.946Z,21.70
2023-05-01T13:58:53.478Z,21.67
2023-05-01T14:01:22.583Z,21.70
2023-05-01T14:03:50.989Z,21.75
2023-05-01T14:06:20.965Z,21.71
2023-05-01T14:08:52.057Z,21.73
2023-05-01T14:11:21.124Z,21.67
2023-05-01T14:13:51.437Z,21.66
2023-05-01T14:16:25.168Z,21.67
2023-05-01T14:18:56.628Z,21.59
2023-05-01T14:21:27.491Z,21.64
2023-05-01T14:23:58.242Z,21.72
2023-05-01T14:26:26.124Z,21.63
2023-05-01T14:28:54.939Z,21.65
2023-05-01T14:31:27.170Z,21.69
2023-05-01T14:33:59.099Z,21.76
2023-05-01T14:36:28.241Z,21.76
2023-05-01T14:38:59.825Z,21.80
2023-05-01T14:41:27.850Z,21.84
2023-05-01T14:43:55.848Z,21.85
2023-05-01T14:46:31.388Z,21.88
2023-05-01T14:49:00.750Z,21.83
2023-05-01T14:51:31.693Z,21.91
2023-05-01T14:54:01.102Z,21.97
2023-05-01T14:56:29.078Z,22.01
2023-05-01T14:58:57.129Z,22.08
2023-05-01T15:01:24.961Z,22.09
2023-05-01T15:03:53.407Z,22.10
2023-05-01T15:06:21.973Z,22.12
2023-05-01T15:08:49.796Z,22.13
2023-05-01T15:11:20.859Z,22.16
2023-05-01T15:13:50.833Z,22.16
2023-05-01T15:16:18.667Z,22.13
2023-05-01T15:18:46.541Z,22.13
2023-05-01T15:21:15.166Z,22.12
2023-05-01T15:23:45.140Z,22.14
2023-05-01T15:26:13.366Z,22.01
2023-05-01T15:28:43.550Z,22.02
2023-05-01T15:31:11.380Z,21.97
2023-05-01T15:33:39.317Z,21.94
2023-05-01T15:36:07.959Z,21.88
2023-05-01T15:38:35.718Z,21.85
2023-05-01T15:41:03.518Z,21.81
2023-05-01T15:43:32.188Z,21.79
2023-05-01T15:46:01.432Z,21.75
2023-05-01T15:48:29.313Z,21.70
2023-05-01T15:50:57.636Z,21.68
2023-05-01T15:53:25.435Z,21.65
2023-05-01T15:55:56.833Z,21.61
2023-05-01T15:58:25.469Z,21.58
2023-05-01T16:00:53.429Z,21.59
2023-05-01T16:03:22.747Z,21.56
2023-05-01T16:05:50.753Z,21.60
2023-05-01T16:08:19.080Z,21.56
2023-05-01T16:10:46.970Z,21.52
2023-05-01T16:13:15.579Z,21.46
2023-05-01T16:15:43.369Z,21.36
2023-05-01T16:18:17.237Z,21.29
2023-05-01T16:20:46.590Z,21.30
2023-05-01T16:23:16.015Z,21.27
2023-05-01T16:25:44.017Z,21.24
2023-05-01T16:28:12.767Z,21.19
2023-05-01T16:30:42.594Z,21.20
2023-05-01T16:33:18.419Z,21.15
2023-05-01T16:35:50.003Z,21.09
2023-05-01T16:38:18.617Z,20.89
2023-05-01T16:40:47.964Z,20.97
2023-05-01T16:43:15.812Z,20.98
2023-05-01T16:45:43.833Z,20.97
2023-05-01T16:48:11.718Z,21.00
2023-05-01T16:50:42.114Z,20.99
2023-05-01T16:53:11.439Z,20.99
2023-05-01T16:55:39.242Z,20.99
2023-05-01T16:58:07.962Z,20.97
2023-05-01T17:00:35.982Z,21.01
2023-05-01T17:03:04.036Z,20.90
2023-05-01T17:05:32.147Z,20.92
2023-05-01T17:08:00.256Z,20.89
2023-05-01T17:10:30.020Z,20.85
2023-05-01T17:12:57.828Z,20.84
2023-05-01T17:15:25.838Z,20.82
2023-05-01T17:17:53.743Z,20.76
2023-05-01T17:20:21.783Z,20.74
2023-05-01T17:22:49.606Z,20.76
2023-05-01T17:25:17.521Z,20.76
2023-05-01T17:27:46.646Z,20.73
2023-05-01T17:30:14.722Z,20.67
2023-05-01T17:32:43.119Z,20.69
2023-05-01T17:35:11.015Z,20.69
2023-05-01T17:37:40.137Z,20.69
2023-05-01T17:40:10.979Z,20.69
2023-05-01T17:42:38.839Z,20.69
2023-05-01T17:45:10.353Z,20.68
2023-05-01T17:47:41.502Z,20.67
2023-05-01T17:50:11.502Z,20.66
2023-05-01T17:52:39.651Z,20.65
2023-05-01T17:55:08.323Z,20.62
2023-05-01T17:57:39.645Z,20.62
2023-05-01T18:00:13.278Z,20.62
2023-05-01T18:02:45.353Z,20.60
2023-05-01T18:05:13.808Z,20.53
2023-05-01T18:07:42.047Z,20.50
2023-05-01T18:10:11.850Z,20.48
2023-05-01T18:12:39.718Z,20.48
2023-05-01T18:15:09.869Z,20.43
2023-05-01T18:17:38.249Z,20.36
2023-05-01T18:20:07.337Z,20.36
2023-05-01T18:22:35.316Z,20.29
2023-05-01T18:25:03.612Z,20.28
2023-05-01T18:27:31.363Z,20.25
2023-05-01T18:29:59.315Z,20.22
2023-05-01T18:32:43.286Z,20.19
2023-05-01T18:35:15.290Z,20.13
2023-05-01T18:37:44.437Z,20.12
2023-05-01T18:40:13.141Z,20.11
2023-05-01T18:42:42.329Z,20.07
2023-05-01T18:45:11.672Z,19.94
2023-05-01T18:47:41.162Z,19.98
2023-05-01T18:50:12.039Z,19.98
2023-05-01T18:52:41.835Z,19.95
2023-05-01T18:55:11.960Z,19.92
2023-05-01T18:57:41.731Z,19.89
2023-05-01T19:00:14.090Z,19.88
2023-05-01T19:02:46.681Z,19.86
2023-05-01T19:05:15.982Z,19.83
2023-05-01T19:07:44.701Z,19.83
2023-05-01T19:10:12.659Z,19.72
2023-05-01T19:12:42.334Z,19.73
2023-05-01T19:15:11.188Z,19.72
2023-05-01T19:17:39.938Z,19.68
2023-05-01T19:20:10.950Z,19.70
2023-05-01T19:22:38.723Z,19.64
2023-05-01T19:25:07.281Z,19.61
2023-05-01T19:27:35.776Z,19.52
2023-05-01T19:30:04.087Z,19.51
2023-05-01T19:32:32.922Z,19.47
2023-05-01T19:35:00.909Z,19.40
2023-05-01T19:37:30.067Z,19.35
2023-05-01T19:39:58.362Z,19.28
2023-05-01T19:42:26.497Z,19.23
2023-05-01T19:44:54.271Z,19.20
2023-05-01T19:47:22.189Z,19.08
2023-05-01T19:49:50.611Z,19.03
2023-05-01T19:52:19.509Z,18.98
2023-05-01T19:54:48.709Z,18.97
2023-05-01T19:57:17.005Z,18.91
2023-05-01T19:59:44.747Z,18.87
2023-05-01T20:02:12.555Z,18.82
2023-05-01T20:04:40.969Z,18.82
2023-05-01T20:07:08.775Z,18.74
2023-05-01T20:09:36.535Z,18.66
2023-05-01T20:12:06.261Z,18.67
2023-05-01T20:14:34.257Z,18.61
2023-05-01T20:17:02.290Z,18.56
2023-05-01T20:19:31.748Z,18.54
2023-05-01T20:21:59.652Z,18.53
2023-05-01T20:24:27.616Z,18.52
2023-05-01T20:26:56.019Z,18.52
2023-05-01T20:29:25.228Z,18.53
2023-05-01T20:31:53.178Z,18.44
2023-05-01T20:34:21.521Z,18.44
2023-05-01T20:36:49.316Z,18.36
2023-05-01T20:39:17.155Z,18.38
2023-05-01T20:41:45.098Z,18.39
2023-05-01T20:44:12.926Z,18.34
2023-05-01T20:46:43.569Z,18.38
2023-05-01T20:49:15.199Z,18.31
2023-05-01T20:51:44.014Z,18.37
2023-05-01T20:54:11.850Z,18.35
2023-05-01T20:56:39.976Z,18.33
2023-05-01T20:59:08.235Z,18.30
2023-05-01T21:01:36.555Z,18.22
2023-05-01T21:04:06.724Z,18.27
2023-05-01T21:06:35.031Z,18.22
2023-05-01T21:09:03.500Z,18.20
2023-05-01T21:11:31.501Z,18.17
2023-05-01T21:13:59.346Z,18.15
2023-05-01T21:16:28.827Z,18.11
2023-05-01T21:18:56.953Z,18.17
2023-05-01T21:21:27.539Z,18.16
2023-05-01T21:23:55.417Z,18.14
2023-05-01T21:26:23.680Z,18.07
2023-05-01T21:28:51.468Z,18.05
2023-05-01T21:31:19.314Z,18.03
2023-05-01T21:33:47.729Z,18.02
2023-05-01T21:36:18.459Z,18.02
2023-05-01T21:38:48.449Z,18.00
2023-05-01T21:41:16.234Z,17.99
2023-05-01T21:43:44.422Z,17.97
2023-05-01T21:46:17.393Z,17.98
2023-05-01T21:48:50.461Z,17.94
2023-05-01T21:51:19.421Z,17.90
2023-05-01T21:53:48.734Z,17.88
2023-05-01T21:56:16.937Z,17.87
2023-05-01T21:58:44.877Z,17.84
2023-05-01T22:01:14.307Z,17.85
2023-05-01T22:03:44.508Z,17.82
2023-05-01T22:06:12.454Z,17.82
2023-05-01T22:08:40.750Z,17.80
2023-05-01T22:11:09.938Z,17.77
2023-05-01T22:13:37.712Z,17.74
2023-05-01T22:16:05.987Z,17.72
2023-05-01T22:18:34.582Z,17.70
2023-05-01T22:21:03.393Z,17.70
2023-05-01T22:23:31.363Z,17.69
2023-05-01T22:26:00.496Z,17.67
2023-05-01T22:28:29.869Z,17.64
2023-05-01T22:30:57.743Z,17.62
2023-05-01T22:33:26.139Z,17.60
2023-05-01T22:35:53.890Z,17.55
2023-05-01T22:38:21.651Z,17.54
2023-05-01T22:40:50.010Z,17.53
2023-05-01T22:43:17.776Z,17.52
2023-05-01T22:45:46.948Z,17.52
2023-05-01T22:48:15.326Z,17.50
2023-05-01T22:50:43.803Z,17.49
2023-05-01T22:53:11.832Z,17.50
2023-05-01T22:55:39.930Z,17.49
2023-05-01T22:58:07.676Z,17.50
2023-05-01T23:00:35.439Z,17.51
2023-05-01T23:03:05.538Z,17.50
2023-05-01T23:05:33.490Z,17.48
2023-05-01T23:08:01.347Z,17.48
2023-05-01T23:10:31.179Z,17.48
2023-05-01T23:13:01.345Z,17.48
2023-05-01T23:15:29.156Z,17.46
2023-05-01T23:17:57.918Z,17.45
2023-05-01T23:20:27.193Z,17.45
2023-05-01T23:22:55.032Z,17.42
2023-05-01T23:25:26.557Z,17.44
2023-05-01T23:27:56.397Z,17.42
2023-05-01T23:30:24.354Z,17.42
2023-05-01T23:32:53.254Z,17.40
2023-05-01T23:35:24.302Z,17.40
2023-05-01T23:37:54.242Z,17.39
2023-05-01T23:40:22.066Z,17.38
2023-05-01T23:42:50.212Z,17.37
2023-05-01T23:45:18.692Z,17.35
2023-05-01T23:47:46.935Z,17.33
2023-05-01T23:50:14.865Z,17.32
2023-05-01T23:52:43.018Z,17.32
2023-05-01T23:55:12.458Z,17.30
2023-05-01T23:57:40.285Z,17.28
